< < Back
Terminal Aerodrome Forecast


Current Version              Previous Versions:   1  2  3  4  5  6  7  8  9  

Terminal Aerodrome Forecast

342
FTUS44 KBMX 050520
TAFBHM
TAF
KBHM 050520Z 0506/0606 VRB03KT P6SM FEW080 SCT250
     FM051600 23006KT P6SM SCT060 BKN080
     FM060000 19003KT P6SM BKN100=



Latest METAR

672
SAUS70 KWBC 050600 RRN
MTRBHM
METAR KBHM 050553Z 00000KT 10SM CLR 25/21 A3004 RMK AO2 SLP161 T02500211
10344 20250 403720217 50005


USA.gov is the U.S. government's official web portal to all federal, state and local government web resources and services.